メインページ
METAR-TAF:

METAR-TAF

空港 :

ワルシャワ・ショパン空港

ワルシャワ, ポーランド

緯度: 52-10N, 経度: 020-58E, 海抜: 106m

現時点の気象観測

当レポートは27分前の06:00(UTC)に作成
西の風 7kt、南西から西/北西の間で変化する
気温 5°C
湿度 87%
気圧 1003 hPa
視程10km以上
高度1600ftの千切れ雲あり

METAR: EPWA 150600Z 26007KT 220V290 9999 BKN016 05/03 Q1003 NOSIG

時間: 07:27 (06:27 UTC)

予報

当レポートは57分前の05:30(UTC)に作成
予報は15日の 06時(UTC)から 16日の 06時(UTC)まで有効
西/南西の風 10kt
視程10km以上
高度2500ftの千切れ雲あり
15日の 10時(UTC)から 15日の 12時(UTC)まで徐々に
の風 8kt
15日の 14時(UTC)から 15日の 17時(UTC)まで徐々に
西/南西の風 10kt
確率 40% :
15日の 14時(UTC)から 15日の 18時(UTC)まで一時的に
西/南西の風 15kt、最大25ktの突風を伴う
視程: 4500m
高度700ftの雲は散在している
高度1200ftの千切れ雲あり

TAF: EPWA 150530Z 1506/1606 24010KT 9999 BKN025 BECMG 1510/1512 18008KT BECMG 1514/1517 24010KT PROB40 TEMPO 1514/1518 24015G25KT 4500 RA SCT007 BKN012

4,000以上の空港の気象観測と天気予報(METAR報とTAF報)

利用可能な観測所は地図上に黄色い丸と赤い丸で示す。

丸の上にカーソルを重ねると観測所名を参照できる。

次にクリックすると気象観測と天気予報を参照できる。

マップの切り替え:黒色「×」印の緑ボタンをクリックして拡大、「-」印の緑ボタンをクリックして縮小、緑色の三角印をクリックして隣りの地図に切り替え


METAR-TAF: